Terminal Aerodrome Forecast
Issued by NWS Bismarck, ND

Home | Current Version | Previous Version | Text Only | Print | Product List | Glossary Off
Versions: 1 2 3 4 5 6 7 8 9 10 11 12 13 14 15 16 17 18 19 20 21 22 23

000
FTUS43 KBIS 190300 AAC
TAFISN
TAF AMD
KISN 190317Z 1903/1924 27003KT 3SM BR SKC
      TEMPO 1903/1904 1SM BR
     FM190400 28009KT P6SM VCSH BKN060
     FM190600 25015G21KT P6SM SCT090
     FM191500 28019G26KT P6SM FEW150=

USA.gov is the U.S. government's official web portal to all federal, state and local government web resources and services.